Historique des mesures à Cassis (13260), France
Quotidien Résumé Juillet 19, 2017 Unités:  Métrique    US   Métrique/US
« Précédent (Jour)
Suivant (Jour) »
Quotidien Hebdomadaire Mensuel Annuel Période au choix
  Maximum: Minimum: Moyenne:
Température: TemperatureC °C 21.8 °C 24.9 °C
Point de rosée: DewpointC °C 13.2 °C 16.8 °C
Humidité: Humidity % 49 % 58 %
Vitesse du vent: 0 km/h 0 km/h 2.9 km/h
Rafales: 0 km/h - -
Vent:- - SSE
Pression: PressurehPa hPa 1010.7 hPa -
Précipitations: 0.0 mm    
Historical Graphs
 
 
Mesures pour : Juillet 19, 2017
Heure Temperature Point de rosée Pression Vent Vitesse du vent Rafales Humidité Pluie (par heure) Conditions
TemperatureC °C DewpointC °C PressurehPa hPa Calm     Humidity % HourlyPrecipMM mm SoftwareType W/m2
00:11 23.4 °C 13.5 °C 1013.4 hPa Calm     54 % 0.0 mm open2300-1.11 W/m2
01:11 22.8 °C 13.8 °C 1013.4 hPa Calm     57 % 0.0 mm open2300-1.11 W/m2
02:11 22.9 °C 14.7 °C 1013.4 hPa Calm     60 % 0.0 mm open2300-1.11 W/m2
03:11 22.5 °C 14.8 °C 1013.1 hPa Calm     62 % 0.0 mm open2300-1.11 W/m2
04:11 22.5 °C 15.8 °C 1013.1 hPa Calm     66 % 0.0 mm open2300-1.11 W/m2
05:11 22.4 °C 14.5 °C 1012.4 hPa ENE 4.2 km/h 4.2 km/h 61 % 0.0 mm open2300-1.11 W/m2
06:11 21.8 °C 13.7 °C 1012.4 hPa NNW 3.4 km/h 3.4 km/h 60 % 0.0 mm open2300-1.11 W/m2
07:11 22.1 °C 13.2 °C 1012.8 hPa Calm   3.4 km/h 57 % 0.0 mm open2300-1.11 W/m2
08:11 23.9 °C 15.1 °C 1012.8 hPa Calm     58 % 0.0 mm open2300-1.11 W/m2
09:11 25.3 °C 16.7 °C 1013.4 hPa SSE 5.1 km/h 6.4 km/h 59 % 0.0 mm open2300-1.11 W/m2
10:11 25.8 °C 18.4 °C 1013.4 hPa Calm   5.6 km/h 64 % 0.0 mm open2300-1.11 W/m2
11:11 26.9 °C 18.5 °C 1013.8 hPa SSE 5.6 km/h 11.6 km/h 60 % 0.0 mm open2300-1.11 W/m2
12:11 28.6 °C 20.6 °C 1013.4 hPa NNE 5.1 km/h 8.9 km/h 62 % 0.0 mm open2300-1.11 W/m2
13:11 31.1 °C 19.1 °C 1012.8 hPa SE 8 km/h 9.3 km/h 49 % 0.0 mm open2300-1.11 W/m2
14:11 30.9 °C 19.9 °C 1012.1 hPa West 5.6 km/h 7.6 km/h 52 % 0.0 mm open2300-1.11 W/m2
15:11 29.8 °C 20.9 °C 1011.7 hPa SSE 9.3 km/h 9.3 km/h 59 % 0.0 mm open2300-1.11 W/m2
16:11 29.9 °C 20.2 °C 1011.7 hPa SW 8 km/h 8 km/h 56 % 0.0 mm open2300-1.11 W/m2
17:11 29.8 °C 18.9 °C 1011.4 hPa SW 4.7 km/h 4.7 km/h 52 % 0.0 mm open2300-1.11 W/m2
18:11 29.2 °C 18.9 °C 1011.1 hPa SE 5.1 km/h 5.1 km/h 54 % 0.0 mm open2300-1.11 W/m2
19:11 28.1 °C 19.0 °C 1011.1 hPa ESE 1.8 km/h 9.3 km/h 58 % 0.0 mm open2300-1.11 W/m2
20:11 26.9 °C 20.2 °C 1011.7 hPa South 5.1 km/h 5.1 km/h 67 % 0.0 mm open2300-1.11 W/m2
21:11 25.9 °C 20.2 °C 1011.4 hPa Calm     71 % 0.0 mm open2300-1.11 W/m2
22:11 25.5 °C 19.9 °C 1011.1 hPa Calm     71 % 0.0 mm open2300-1.11 W/m2
23:11 24.9 °C 19.7 °C 1010.7 hPa Calm     73 % 0.0 mm open2300-1.11 W/m2
Observations météo à CASSIS
WU-History script by Weather Underground - 1 mb